createdAt,value
2018-12-03T00:00:51.610Z,90.27
2018-12-03T00:04:03.684Z,90.44
2018-12-03T00:07:09.286Z,91.00
2018-12-03T00:10:14.813Z,90.56
2018-12-03T00:13:20.176Z,90.37
2018-12-03T00:16:25.817Z,91.06
2018-12-03T00:19:31.461Z,91.38
2018-12-03T00:22:37.017Z,90.67
2018-12-03T00:25:42.470Z,91.03
2018-12-03T00:28:47.821Z,90.74
2018-12-03T00:31:53.391Z,91.64
2018-12-03T00:34:58.813Z,91.45
2018-12-03T00:38:04.259Z,90.96
2018-12-03T00:41:09.872Z,91.65
2018-12-03T00:44:15.309Z,91.35
2018-12-03T00:47:20.733Z,91.66
2018-12-03T00:50:26.263Z,90.97
2018-12-03T00:53:31.691Z,91.41
2018-12-03T00:56:37.159Z,91.50
2018-12-03T00:59:42.584Z,91.83
2018-12-03T01:02:48.064Z,91.48
2018-12-03T01:05:53.871Z,91.13
2018-12-03T01:08:59.368Z,91.30
2018-12-03T01:12:05.650Z,90.97
2018-12-03T01:15:11.081Z,90.99
2018-12-03T01:18:16.528Z,91.08
2018-12-03T01:21:22.089Z,91.19
2018-12-03T01:24:27.532Z,90.87
2018-12-03T01:27:33.568Z,90.81
2018-12-03T01:30:39.068Z,91.27
2018-12-03T01:33:44.496Z,90.88
2018-12-03T01:36:49.877Z,91.02
2018-12-03T01:39:55.264Z,91.12
2018-12-03T01:43:01.657Z,90.87
2018-12-03T01:46:08.061Z,90.39
2018-12-03T01:49:13.506Z,90.50
2018-12-03T01:52:19.028Z,90.65
2018-12-03T01:55:24.393Z,90.51
2018-12-03T01:58:29.767Z,90.71
2018-12-03T02:01:35.272Z,90.14
2018-12-03T02:04:40.696Z,90.06
2018-12-03T02:07:46.476Z,89.79
2018-12-03T02:10:52.027Z,90.09
2018-12-03T02:13:57.513Z,90.27
2018-12-03T02:17:02.946Z,90.44
2018-12-03T02:20:11.339Z,89.68
2018-12-03T02:23:16.791Z,89.54
2018-12-03T02:26:22.221Z,89.19
2018-12-03T02:29:27.606Z,89.08
2018-12-03T02:32:33.186Z,88.75
2018-12-03T02:35:38.665Z,88.96
2018-12-03T02:38:46.210Z,89.25
2018-12-03T02:41:51.729Z,89.17
2018-12-03T02:44:57.224Z,89.69
2018-12-03T02:48:02.632Z,89.86
2018-12-03T02:51:08.176Z,89.66
2018-12-03T02:54:13.637Z,89.20
2018-12-03T02:57:19.088Z,89.08
2018-12-03T03:00:24.636Z,89.15
2018-12-03T03:03:30.142Z,89.60
2018-12-03T03:06:35.821Z,89.64
2018-12-03T03:09:41.229Z,89.70
2018-12-03T03:12:46.716Z,90.00
2018-12-03T03:15:52.298Z,90.46
2018-12-03T03:18:58.485Z,90.38
2018-12-03T03:22:03.988Z,91.27
2018-12-03T03:25:12.300Z,91.15
2018-12-03T03:28:17.770Z,91.27
2018-12-03T03:31:23.297Z,91.14
2018-12-03T03:34:28.873Z,91.62
2018-12-03T03:37:34.325Z,92.58
2018-12-03T03:40:39.973Z,91.54
2018-12-03T03:43:46.032Z,92.29
2018-12-03T03:46:51.468Z,92.28
2018-12-03T03:49:57.569Z,91.55
2018-12-03T03:53:03.086Z,91.90
2018-12-03T03:56:08.563Z,91.81
2018-12-03T03:59:13.992Z,92.08
2018-12-03T04:02:19.537Z,92.03
2018-12-03T04:05:25.042Z,91.92
2018-12-03T04:08:30.536Z,92.25
2018-12-03T04:11:36.092Z,92.60
2018-12-03T04:14:41.477Z,93.24
2018-12-03T04:17:46.885Z,93.42
2018-12-03T04:20:52.392Z,93.78
2018-12-03T04:23:57.940Z,92.88
2018-12-03T04:27:03.476Z,93.12
2018-12-03T04:30:15.967Z,92.94
2018-12-03T04:33:21.430Z,93.20
2018-12-03T04:36:26.929Z,92.92
2018-12-03T04:39:32.385Z,92.77
2018-12-03T04:42:38.113Z,93.30
2018-12-03T04:45:43.516Z,93.10
2018-12-03T04:48:49.012Z,92.53
2018-12-03T04:51:54.501Z,92.68
2018-12-03T04:55:00.143Z,92.72
2018-12-03T04:58:05.820Z,93.04
2018-12-03T05:01:11.373Z,92.78
2018-12-03T05:04:16.815Z,92.45
2018-12-03T05:07:22.272Z,92.11
2018-12-03T05:10:27.800Z,92.63
2018-12-03T05:13:33.272Z,91.98
2018-12-03T05:16:38.716Z,92.65
2018-12-03T05:19:44.141Z,92.10
2018-12-03T05:22:49.731Z,92.19
2018-12-03T05:25:55.300Z,92.28
2018-12-03T05:29:00.716Z,92.05
2018-12-03T05:32:06.577Z,92.13
2018-12-03T05:35:17.233Z,92.13
2018-12-03T05:38:22.723Z,91.87
2018-12-03T05:41:28.191Z,91.71
2018-12-03T05:44:34.329Z,91.70
2018-12-03T05:47:40.182Z,91.41
2018-12-03T05:50:45.804Z,90.94
2018-12-03T05:53:51.228Z,90.75
2018-12-03T05:56:57.013Z,90.75
2018-12-03T06:00:02.742Z,90.52
2018-12-03T06:03:08.252Z,90.64
2018-12-03T06:06:14.556Z,90.01
2018-12-03T06:09:20.072Z,90.55
2018-12-03T06:12:25.585Z,91.16
2018-12-03T06:15:31.053Z,92.35
2018-12-03T06:18:36.536Z,93.16
2018-12-03T06:21:42.741Z,93.51
2018-12-03T06:24:48.211Z,93.92
2018-12-03T06:27:53.573Z,93.68
2018-12-03T06:30:59.109Z,94.52
2018-12-03T06:34:05.148Z,94.68
2018-12-03T06:37:10.600Z,95.26
2018-12-03T06:40:20.183Z,95.50
2018-12-03T06:43:25.596Z,94.80
2018-12-03T06:46:31.076Z,94.66
2018-12-03T06:49:36.620Z,94.23
2018-12-03T06:52:42.145Z,94.90
2018-12-03T06:55:47.618Z,95.46
2018-12-03T06:58:53.036Z,96.05
2018-12-03T07:01:58.588Z,96.30
2018-12-03T07:05:04.420Z,96.96
2018-12-03T07:08:10.897Z,97.04
2018-12-03T07:11:16.510Z,96.79
2018-12-03T07:14:21.932Z,96.98
2018-12-03T07:17:27.496Z,97.68
2018-12-03T07:20:33.073Z,96.86
2018-12-03T07:23:38.633Z,97.61
2018-12-03T07:26:44.690Z,97.32
2018-12-03T07:29:52.849Z,97.75
2018-12-03T07:32:56.463Z,97.14
2018-12-03T07:36:02.033Z,97.64
2018-12-03T07:39:08.799Z,97.17
2018-12-03T07:42:14.363Z,96.94
2018-12-03T07:45:22.232Z,96.41
2018-12-03T07:48:28.635Z,95.71
2018-12-03T07:51:34.212Z,96.56
2018-12-03T07:54:40.197Z,96.50
2018-12-03T07:58:25.466Z,96.50
2018-12-03T08:01:31.108Z,95.61
2018-12-03T08:04:36.448Z,95.89
2018-12-03T08:07:41.904Z,96.49
2018-12-03T08:10:51.224Z,95.98
2018-12-03T08:13:56.782Z,96.42
2018-12-03T08:17:02.225Z,96.64
2018-12-03T08:20:18.913Z,96.64
2018-12-03T08:23:33.431Z,96.40
2018-12-03T08:26:43.869Z,95.61
2018-12-03T08:29:49.435Z,95.58
2018-12-03T08:32:54.883Z,95.42
2018-12-03T08:36:00.392Z,94.70
2018-12-03T08:39:09.061Z,95.15
2018-12-03T08:42:14.493Z,95.34
2018-12-03T08:45:21.237Z,95.40
2018-12-03T08:48:27.527Z,94.72
2018-12-03T08:51:33.502Z,94.33
2018-12-03T08:54:38.948Z,94.08
2018-12-03T08:57:44.496Z,94.10
2018-12-03T09:00:49.917Z,94.76
2018-12-03T09:04:02.352Z,94.66
2018-12-03T09:07:07.781Z,95.06
2018-12-03T09:10:16.949Z,94.58
2018-12-03T09:13:24.233Z,94.41
2018-12-03T09:16:31.700Z,93.72
2018-12-03T09:19:37.188Z,93.65
2018-12-03T09:22:42.600Z,93.41
2018-12-03T09:25:48.471Z,92.65
2018-12-03T09:28:53.927Z,92.13
2018-12-03T09:31:59.361Z,91.52
2018-12-03T09:35:06.988Z,91.15
2018-12-03T09:38:12.406Z,90.67
2018-12-03T09:41:17.780Z,90.55
2018-12-03T09:44:23.221Z,91.71
2018-12-03T09:47:29.373Z,89.38
2018-12-03T09:50:35.259Z,89.33
2018-12-03T09:53:40.671Z,88.18
2018-12-03T09:56:49.535Z,87.28
2018-12-03T09:59:54.933Z,87.86
2018-12-03T10:03:02.736Z,86.52
2018-12-03T10:06:13.892Z,85.71
2018-12-03T10:09:19.901Z,86.10
2018-12-03T10:12:25.370Z,85.93
2018-12-03T10:15:31.748Z,86.20
2018-12-03T10:18:37.181Z,87.27
2018-12-03T10:21:46.462Z,87.07
2018-12-03T10:24:51.972Z,86.41
2018-12-03T10:28:04.300Z,86.30
2018-12-03T10:31:14.655Z,86.34
2018-12-03T10:34:21.089Z,85.23
2018-12-03T10:37:26.497Z,85.50
2018-12-03T10:40:31.906Z,87.05
2018-12-03T10:43:37.573Z,86.13
2018-12-03T10:46:43.020Z,86.10
2018-12-03T10:49:48.452Z,85.85
2018-12-03T10:52:54.040Z,85.19
2018-12-03T10:55:59.489Z,85.24
2018-12-03T10:59:05.038Z,85.94
2018-12-03T11:02:16.072Z,86.36
2018-12-03T11:05:29.369Z,86.85
2018-12-03T11:08:35.252Z,87.54
2018-12-03T11:11:43.244Z,90.05
2018-12-03T11:14:49.325Z,91.19
2018-12-03T11:18:43.036Z,91.47
2018-12-03T11:21:51.757Z,92.85
2018-12-03T11:24:59.321Z,93.38
2018-12-03T11:28:11.068Z,94.21
2018-12-03T11:31:28.653Z,92.62
2018-12-03T11:34:46.857Z,91.78
2018-12-03T11:38:01.356Z,91.90
2018-12-03T11:41:09.111Z,92.02
2018-12-03T11:44:16.701Z,92.09
2018-12-03T11:47:24.605Z,92.58
2018-12-03T11:50:42.012Z,90.86
2018-12-03T11:54:00.565Z,90.17
2018-12-03T11:57:08.987Z,90.26
2018-12-03T12:00:16.852Z,89.34
2018-12-03T12:03:24.423Z,89.08
2018-12-03T12:06:32.000Z,89.42
2018-12-03T12:09:39.513Z,89.37
2018-12-03T12:12:57.027Z,89.72
2018-12-03T12:16:14.481Z,89.42
2018-12-03T12:19:31.900Z,87.98
2018-12-03T12:22:50.372Z,88.98
2018-12-03T12:25:57.965Z,86.93
2018-12-03T12:29:15.629Z,87.57
2018-12-03T12:32:33.032Z,86.78
2018-12-03T12:35:50.493Z,87.86
2018-12-03T12:39:11.132Z,86.76
2018-12-03T12:42:31.688Z,86.17
2018-12-03T12:45:48.976Z,87.41
2018-12-03T12:48:56.685Z,87.63
2018-12-03T12:52:04.192Z,87.51
2018-12-03T12:55:12.584Z,87.13
2018-12-03T12:58:20.119Z,87.01
2018-12-03T13:01:28.096Z,86.97
2018-12-03T13:04:35.935Z,86.06
2018-12-03T13:07:43.516Z,86.33
2018-12-03T13:11:02.201Z,85.61
2018-12-03T13:14:19.572Z,85.66
2018-12-03T13:17:37.053Z,84.91
2018-12-03T13:20:54.456Z,85.66
2018-12-03T13:24:11.876Z,85.81
2018-12-03T13:27:32.311Z,85.01
2018-12-03T13:30:39.880Z,84.42
2018-12-03T13:33:47.484Z,85.29
2018-12-03T13:36:55.081Z,84.35
2018-12-03T13:40:03.082Z,83.97
2018-12-03T13:43:11.421Z,83.92
2018-12-03T13:46:28.832Z,83.83
2018-12-03T13:49:46.237Z,83.45
2018-12-03T13:53:04.266Z,83.40
2018-12-03T13:56:11.847Z,83.43
2018-12-03T13:59:19.332Z,81.98
2018-12-03T14:02:37.150Z,82.55
2018-12-03T14:08:17.281Z,80.92
2018-12-03T14:12:20.736Z,80.95
2018-12-03T14:15:45.001Z,82.71
2018-12-03T14:19:10.340Z,83.47
2018-12-03T14:22:36.364Z,82.33
2018-12-03T14:25:43.966Z,84.12
2018-12-03T14:28:51.589Z,84.06
2018-12-03T14:32:10.322Z,83.36
2018-12-03T14:35:18.329Z,83.90
2018-12-03T14:38:26.542Z,84.08
2018-12-03T14:41:34.248Z,84.15
2018-12-03T14:44:41.976Z,84.71
2018-12-03T14:47:49.524Z,85.22
2018-12-03T14:51:07.885Z,85.74
2018-12-03T14:54:15.397Z,85.78
2018-12-03T14:57:22.992Z,85.61
2018-12-03T15:00:30.588Z,85.19
2018-12-03T15:03:48.267Z,86.24
2018-12-03T15:06:56.492Z,85.94
2018-12-03T15:10:04.628Z,85.02
2018-12-03T15:13:12.164Z,85.56
2018-12-03T15:16:20.131Z,86.20
2018-12-03T15:19:37.588Z,86.36
2018-12-03T15:22:55.140Z,86.53
2018-12-03T15:26:02.708Z,85.76
2018-12-03T15:29:10.316Z,85.48
2018-12-03T15:32:17.921Z,84.67
2018-12-03T15:35:25.549Z,84.98
2018-12-03T15:38:33.141Z,85.25
2018-12-03T15:41:41.131Z,84.41
2018-12-03T15:44:58.913Z,84.87
2018-12-03T15:48:16.273Z,84.49
2018-12-03T15:51:34.748Z,84.10
2018-12-03T15:54:52.585Z,85.08
2018-12-03T15:58:00.164Z,84.08
2018-12-03T16:01:07.781Z,83.94
2018-12-03T16:04:15.381Z,84.38
2018-12-03T16:07:32.785Z,83.38
2018-12-03T16:10:50.795Z,83.28
2018-12-03T16:13:58.363Z,83.81
2018-12-03T16:17:05.884Z,83.68
2018-12-03T16:20:13.944Z,83.48
2018-12-03T16:23:21.637Z,84.25
2018-12-03T16:26:29.544Z,84.07
2018-12-03T16:29:37.578Z,83.96
2018-12-03T16:32:45.196Z,83.88
2018-12-03T16:36:02.816Z,82.58
2018-12-03T16:39:20.240Z,83.09
2018-12-03T16:42:38.735Z,83.41
2018-12-03T16:45:56.871Z,83.02
2018-12-03T16:49:04.344Z,83.05
2018-12-03T16:52:11.938Z,83.17
2018-12-03T16:55:29.583Z,83.24
2018-12-03T16:58:47.716Z,81.94
2018-12-03T17:01:55.313Z,81.55
2018-12-03T17:05:02.913Z,81.45
2018-12-03T17:08:20.457Z,82.14
2018-12-03T17:11:38.000Z,81.86
2018-12-03T17:14:45.568Z,81.63
2018-12-03T17:17:53.085Z,81.44
2018-12-03T17:21:09.984Z,81.24
2018-12-03T17:24:23.960Z,81.25
2018-12-03T17:27:31.633Z,81.06
2018-12-03T17:30:39.125Z,80.65
2018-12-03T17:33:46.661Z,80.42
2018-12-03T17:36:54.228Z,81.61
2018-12-03T17:40:01.840Z,82.08
2018-12-03T17:43:09.564Z,82.14
2018-12-03T17:46:17.206Z,82.35
2018-12-03T17:49:25.255Z,81.94
2018-12-03T17:52:32.773Z,82.95
2018-12-03T17:55:40.345Z,83.13
2018-12-03T17:58:47.940Z,83.34
2018-12-03T18:02:05.863Z,84.14
2018-12-03T18:05:13.388Z,82.89
2018-12-03T18:08:20.906Z,83.53
2018-12-03T18:11:28.508Z,83.25
2018-12-03T18:14:35.994Z,83.35
2018-12-03T18:17:53.435Z,83.41
2018-12-03T18:21:10.944Z,83.78
2018-12-03T18:24:28.533Z,83.67
2018-12-03T18:27:46.016Z,84.05
2018-12-03T18:31:03.437Z,84.04
2018-12-03T18:34:20.837Z,85.18
2018-12-03T18:37:38.298Z,84.38
2018-12-03T18:40:55.716Z,84.25
2018-12-03T18:44:13.030Z,84.21
2018-12-03T18:47:30.476Z,84.69
2018-12-03T18:50:51.706Z,84.63
2018-12-03T18:53:59.623Z,84.15
2018-12-03T18:57:07.200Z,83.77
2018-12-03T19:00:16.012Z,83.84
2018-12-03T19:03:23.525Z,83.60
2018-12-03T19:06:31.852Z,82.71
2018-12-03T19:09:49.393Z,82.09
2018-12-03T19:13:06.801Z,82.46
2018-12-03T19:16:24.344Z,82.92
2018-12-03T19:19:41.636Z,82.47
2018-12-03T19:22:59.201Z,82.39
2018-12-03T19:26:16.509Z,81.86
2018-12-03T19:29:38.624Z,82.00
2018-12-03T19:32:43.517Z,82.05
2018-12-03T19:35:51.291Z,82.60
2018-12-03T19:38:58.812Z,82.17
2018-12-03T19:42:16.228Z,82.85
2018-12-03T19:45:34.285Z,83.22
2018-12-03T19:48:42.076Z,87.44
2018-12-03T19:51:49.557Z,90.30
2018-12-03T19:55:11.916Z,91.15
2018-12-03T19:58:35.405Z,91.56
2018-12-03T20:01:43.379Z,91.68
2018-12-03T20:04:51.901Z,92.74
2018-12-03T20:07:59.396Z,92.95
2018-12-03T20:11:07.824Z,92.82
2018-12-03T20:14:25.168Z,93.95
2018-12-03T20:17:43.900Z,94.03
2018-12-03T20:20:56.765Z,94.35
2018-12-03T20:24:10.288Z,94.57
2018-12-03T20:27:30.355Z,94.37
2018-12-03T20:31:12.673Z,94.20
2018-12-03T20:34:36.388Z,94.97
2018-12-03T20:38:51.748Z,95.16
2018-12-03T20:42:04.056Z,94.70
2018-12-03T20:45:43.396Z,94.48
2018-12-03T20:51:08.484Z,95.00
2018-12-03T21:00:47.672Z,94.75
2018-12-03T21:03:55.580Z,94.90
2018-12-03T21:10:19.217Z,95.31
2018-12-03T21:13:36.529Z,94.04
2018-12-03T21:16:55.308Z,93.92
2018-12-03T21:20:18.957Z,94.20
2018-12-03T21:23:36.492Z,93.64
2018-12-03T21:26:54.065Z,94.58
2018-12-03T21:30:12.388Z,93.46
2018-12-03T21:33:19.869Z,92.38
2018-12-03T21:39:47.924Z,90.90
2018-12-03T21:42:53.125Z,90.94
2018-12-03T21:46:00.624Z,90.74
2018-12-03T21:49:18.048Z,90.53
2018-12-03T21:52:36.609Z,89.28
2018-12-03T21:55:44.100Z,90.39
2018-12-03T21:58:51.579Z,90.51
2018-12-03T22:02:09.417Z,90.11
2018-12-03T22:05:16.969Z,90.01
2018-12-03T22:08:25.380Z,90.49
2018-12-03T22:11:33.052Z,89.83
2018-12-03T22:14:40.537Z,89.51
2018-12-03T22:17:48.083Z,90.17
2018-12-03T22:21:06.096Z,90.38
2018-12-03T22:24:13.677Z,90.35
2018-12-03T22:27:21.679Z,89.59
2018-12-03T22:30:39.072Z,90.89
2018-12-03T22:33:56.412Z,90.09
2018-12-03T22:37:13.852Z,89.89
2018-12-03T22:40:31.431Z,88.98
2018-12-03T22:43:39.014Z,88.71
2018-12-03T22:46:46.894Z,88.21
2018-12-03T22:49:54.399Z,88.40
2018-12-03T22:53:11.955Z,88.58
2018-12-03T22:56:29.300Z,88.53
2018-12-03T22:59:46.788Z,87.61
2018-12-03T23:03:04.193Z,87.84
2018-12-03T23:06:21.673Z,88.42
2018-12-03T23:09:38.984Z,87.55
2018-12-03T23:12:56.476Z,88.08
2018-12-03T23:16:13.801Z,88.22
2018-12-03T23:19:31.236Z,88.71
2018-12-03T23:22:49.615Z,88.06
2018-12-03T23:25:57.225Z,88.65
2018-12-03T23:29:05.049Z,88.64
2018-12-03T23:32:12.596Z,88.73
2018-12-03T23:35:20.124Z,89.27
2018-12-03T23:38:27.621Z,88.98
2018-12-03T23:41:35.113Z,88.54
2018-12-03T23:44:52.693Z,89.05
2018-12-03T23:48:00.180Z,88.88
2018-12-03T23:51:07.675Z,88.27
2018-12-03T23:54:15.152Z,88.53
2018-12-03T23:57:23.006Z,88.65
